Time;durP1;ratioP1;P1;durP2;ratioP2;P2;SDS_P1;SDS_P2;PMS_P1;PMS_P2;Temp;Humidity;BMP_temperature;BMP_pressure;BME280_temperature;BME280_humidity;BME280_pressure;Samples;Min_cycle;Max_cycle;Signal;HPM_P1;HPM_P2
2022/05/09 00:02:05;;;;;;;4.50;0.80;;;;;;;;;;5027492;28;20049;-60
2022/05/09 00:04:32;;;;;;;1.55;0.52;;;;;;;;;;5027260;28;20526;-62
2022/05/09 00:06:58;;;;;;;1.65;0.50;;;;;;;;;;5028505;28;20048;-64
2022/05/09 00:09:25;;;;;;;2.70;0.50;;;;;;;;;;5025950;28;20579;-67
2022/05/09 00:11:52;;;;;;;3.58;0.80;;;;;;;;;;5030137;28;20493;-63
2022/05/09 00:14:19;;;;;;;1.70;0.63;;;;;;;;;;5022733;28;20047;-64
2022/05/09 00:16:45;;;;;;;4.07;0.95;;;;;;;;;;5029383;28;20056;-65
2022/05/09 00:19:17;;;;;;;2.65;0.77;;;;;;;;;;5029212;28;20045;-65
2022/05/09 00:21:44;;;;;;;1.95;0.50;;;;;;;;;;5026220;28;20087;-64
2022/05/09 00:33:24;;;;;;;2.55;0.60;;;;;;;;;;5512871;22;21293;-65
2022/05/09 00:35:53;;;;;;;3.50;1.25;;;;;;;;;;5023916;28;20605;-65
2022/05/09 00:38:20;;;;;;;3.72;0.63;;;;;;;;;;5023710;28;20638;-68
2022/05/09 00:43:33;;;;;;;2.17;0.50;;;;;;;;;;5002422;28;20539;-68
2022/05/09 00:46:00;;;;;;;2.40;0.60;;;;;;;;;;5002664;28;20477;-65
2022/05/09 00:48:27;;;;;;;4.35;1.23;;;;;;;;;;5022333;28;20049;-65
2022/05/09 00:50:55;;;;;;;4.65;0.73;;;;;;;;;;5009415;28;20056;-65
2022/05/09 00:53:22;;;;;;;2.25;0.60;;;;;;;;;;5026053;28;20077;-67
2022/05/09 00:55:56;;;;;;;2.13;0.52;;;;;;;;;;5026870;28;20052;-65
2022/05/09 00:58:27;;;;;;;1.67;0.50;;;;;;;;;;5025553;28;20033;-65
2022/05/09 01:00:55;;;;;;;2.40;0.70;;;;;;;;;;5019092;28;20041;-66
2022/05/09 01:03:30;;;;;;;1.67;0.50;;;;;;;;;;5018934;28;20156;-66
2022/05/09 01:05:56;;;;;;;1.40;0.47;;;;;;;;;;5028372;28;20607;-68
2022/05/09 01:08:24;;;;;;;1.92;0.52;;;;;;;;;;5010138;28;20040;-66
2022/05/09 01:10:52;;;;;;;1.88;0.60;;;;;;;;;;5026744;28;20051;-67
2022/05/09 01:13:21;;;;;;;1.95;0.60;;;;;;;;;;5026219;28;20086;-66
2022/05/09 01:15:49;;;;;;;3.53;0.70;;;;;;;;;;5029232;28;20516;-66
2022/05/09 01:18:19;;;;;;;1.88;0.60;;;;;;;;;;5032858;28;20758;-66
2022/05/09 01:20:46;;;;;;;3.80;0.90;;;;;;;;;;5009025;28;20182;-65
2022/05/09 01:23:14;;;;;;;2.60;0.68;;;;;;;;;;4973530;28;20136;-65
2022/05/09 01:25:40;;;;;;;3.78;0.80;;;;;;;;;;4988828;28;20038;-65
2022/05/09 01:28:08;;;;;;;3.03;0.60;;;;;;;;;;4991114;28;20040;-66
2022/05/09 01:30:49;;;;;;;3.42;0.70;;;;;;;;;;4988526;28;20053;-65
2022/05/09 01:33:21;;;;;;;1.92;0.60;;;;;;;;;;4989808;28;20477;-65
2022/05/09 01:35:55;;;;;;;4.05;0.75;;;;;;;;;;4972817;28;20514;-64
2022/05/09 01:38:25;;;;;;;2.50;0.70;;;;;;;;;;4988515;28;20046;-65
2022/05/09 01:40:54;;;;;;;1.80;0.60;;;;;;;;;;4987561;28;20066;-66
2022/05/09 01:43:35;;;;;;;2.15;0.63;;;;;;;;;;4990340;28;20070;-65
2022/05/09 01:46:06;;;;;;;2.88;1.02;;;;;;;;;;4988548;28;20038;-67
2022/05/09 01:51:18;;;;;;;2.40;0.63;;;;;;;;;;4987598;28;20065;-64
2022/05/09 01:53:52;;;;;;;3.65;0.80;;;;;;;;;;5008007;28;20046;-64
2022/05/09 01:56:25;;;;;;;2.67;0.75;;;;;;;;;;5009613;28;20227;-65
2022/05/09 01:58:52;;;;;;;3.28;0.70;;;;;;;;;;5007398;28;20445;-64
2022/05/09 02:01:20;;;;;;;1.52;0.60;;;;;;;;;;5023254;28;20203;-64
2022/05/09 02:03:47;;;;;;;1.58;0.60;;;;;;;;;;5028277;28;20038;-64
2022/05/09 02:06:17;;;;;;;1.90;0.60;;;;;;;;;;5029835;28;20041;-65
2022/05/09 02:08:44;;;;;;;2.13;0.73;;;;;;;;;;5016364;28;20096;-65
2022/05/09 02:11:11;;;;;;;1.98;0.60;;;;;;;;;;5004158;28;20120;-64
2022/05/09 02:13:38;;;;;;;2.88;0.73;;;;;;;;;;5027704;28;20040;-66
2022/05/09 02:16:05;;;;;;;5.78;0.80;;;;;;;;;;5031199;28;20033;-65
2022/05/09 02:18:33;;;;;;;7.05;0.93;;;;;;;;;;5012636;28;21002;-65
2022/05/09 02:20:59;;;;;;;3.17;0.77;;;;;;;;;;5029375;28;20038;-65
2022/05/09 02:23:26;;;;;;;3.08;0.90;;;;;;;;;;5017941;28;20046;-65
2022/05/09 02:25:53;;;;;;;2.35;0.73;;;;;;;;;;5022722;28;20271;-65
2022/05/09 02:28:23;;;;;;;2.13;0.70;;;;;;;;;;5029109;28;20068;-65
2022/05/09 02:30:50;;;;;;;5.07;0.90;;;;;;;;;;5030304;28;20041;-65
2022/05/09 02:33:17;;;;;;;2.35;0.73;;;;;;;;;;5029472;28;20057;-65
2022/05/09 02:35:44;;;;;;;2.13;0.70;;;;;;;;;;5029335;28;20050;-66
2022/05/09 02:38:11;;;;;;;1.23;0.50;;;;;;;;;;5029375;28;20045;-64
2022/05/09 02:40:38;;;;;;;4.68;0.90;;;;;;;;;;5028017;28;20045;-65
2022/05/09 02:43:06;;;;;;;2.13;0.80;;;;;;;;;;5028531;28;20048;-64
2022/05/09 02:45:33;;;;;;;2.05;0.73;;;;;;;;;;5030610;28;20428;-66
2022/05/09 02:48:00;;;;;;;3.42;0.90;;;;;;;;;;5030466;28;20037;-64
2022/05/09 02:50:27;;;;;;;2.55;0.80;;;;;;;;;;5027976;28;20049;-64
2022/05/09 02:52:55;;;;;;;2.55;0.80;;;;;;;;;;5031420;28;20663;-64
2022/05/09 02:55:22;;;;;;;3.40;0.88;;;;;;;;;;5028204;28;20119;-63
2022/05/09 02:57:49;;;;;;;2.92;0.90;;;;;;;;;;5029449;28;20056;-66
2022/05/09 03:00:21;;;;;;;2.95;0.98;;;;;;;;;;5028988;28;20682;-65
2022/05/09 03:05:34;;;;;;;4.30;1.00;;;;;;;;;;5030228;28;20095;-64
2022/05/09 03:08:01;;;;;;;4.57;0.90;;;;;;;;;;5011405;28;20449;-64
2022/05/09 03:10:31;;;;;;;2.28;0.65;;;;;;;;;;5020629;28;20041;-64
2022/05/09 03:13:01;;;;;;;3.20;0.70;;;;;;;;;;5029146;28;20041;-64
2022/05/09 03:15:35;;;;;;;5.93;0.70;;;;;;;;;;5026746;28;20045;-63
2022/05/09 03:18:02;;;;;;;1.80;0.63;;;;;;;;;;5028378;28;20135;-65
2022/05/09 03:20:29;;;;;;;4.22;0.88;;;;;;;;;;5026947;28;20129;-64
2022/05/09 03:22:56;;;;;;;6.43;0.82;;;;;;;;;;5029442;28;20045;-64
2022/05/09 03:25:23;;;;;;;3.28;0.95;;;;;;;;;;5025454;28;20037;-64
2022/05/09 03:27:50;;;;;;;2.80;0.77;;;;;;;;;;5029240;28;20397;-64
2022/05/09 03:30:18;;;;;;;2.75;0.73;;;;;;;;;;5031048;28;20045;-64
2022/05/09 03:32:45;;;;;;;3.60;1.00;;;;;;;;;;5028586;28;20053;-64
2022/05/09 03:35:12;;;;;;;4.47;1.10;;;;;;;;;;5028866;28;20083;-65
2022/05/09 03:37:39;;;;;;;3.38;1.00;;;;;;;;;;5020555;28;25930;-65
2022/05/09 03:40:06;;;;;;;3.35;0.77;;;;;;;;;;5025971;28;20042;-65
2022/05/09 03:42:33;;;;;;;3.30;1.00;;;;;;;;;;5026155;28;20039;-65
2022/05/09 03:45:00;;;;;;;2.60;1.00;;;;;;;;;;5026059;28;20358;-65
2022/05/09 03:47:27;;;;;;;2.45;0.90;;;;;;;;;;5006841;28;20037;-65
2022/05/09 03:49:55;;;;;;;3.03;1.13;;;;;;;;;;5030030;28;20221;-65
2022/05/09 03:52:22;;;;;;;2.67;0.90;;;;;;;;;;5029369;28;20489;-65
2022/05/09 03:54:49;;;;;;;3.50;1.10;;;;;;;;;;5031444;28;20041;-64
2022/05/09 03:57:16;;;;;;;3.28;1.10;;;;;;;;;;5031555;28;20156;-66
2022/05/09 03:59:43;;;;;;;2.97;1.00;;;;;;;;;;5030800;28;20038;-65
2022/05/09 04:02:10;;;;;;;5.70;1.20;;;;;;;;;;5007084;28;20088;-65
2022/05/09 04:04:37;;;;;;;3.00;1.20;;;;;;;;;;5028904;28;20041;-65
2022/05/09 04:07:04;;;;;;;3.38;1.25;;;;;;;;;;5027778;28;20117;-65
2022/05/09 04:09:31;;;;;;;3.45;1.30;;;;;;;;;;5028263;28;20705;-65
2022/05/09 04:11:58;;;;;;;3.47;1.30;;;;;;;;;;5028472;28;21825;-64
2022/05/09 04:17:10;;;;;;;3.58;1.30;;;;;;;;;;5029715;28;22148;-66
2022/05/09 04:19:37;;;;;;;2.17;0.70;;;;;;;;;;5027653;28;20037;-66
2022/05/09 04:22:04;;;;;;;2.60;0.85;;;;;;;;;;5026655;28;20052;-66
2022/05/09 04:24:31;;;;;;;2.60;1.00;;;;;;;;;;5028794;28;20033;-66
2022/05/09 04:26:59;;;;;;;3.58;0.98;;;;;;;;;;5028684;28;20395;-66
2022/05/09 04:29:25;;;;;;;1.95;0.68;;;;;;;;;;5025455;28;20041;-66
2022/05/09 04:31:52;;;;;;;1.52;0.50;;;;;;;;;;5027705;28;20037;-67
2022/05/09 04:34:19;;;;;;;2.10;0.60;;;;;;;;;;5026770;28;20044;-66
2022/05/09 04:36:46;;;;;;;1.60;0.60;;;;;;;;;;5027073;28;20718;-67
2022/05/09 04:39:12;;;;;;;2.05;0.70;;;;;;;;;;5025731;28;20033;-66
2022/05/09 04:41:39;;;;;;;1.75;0.55;;;;;;;;;;5024244;28;20037;-65
2022/05/09 04:44:06;;;;;;;2.88;0.88;;;;;;;;;;5026622;28;20113;-65
2022/05/09 04:46:33;;;;;;;2.22;0.82;;;;;;;;;;5026935;28;20103;-64
2022/05/09 04:49:00;;;;;;;1.92;0.70;;;;;;;;;;5025483;28;20060;-64
2022/05/09 04:51:27;;;;;;;4.68;0.80;;;;;;;;;;5026071;28;20040;-64
2022/05/09 04:53:54;;;;;;;2.63;1.05;;;;;;;;;;5025443;28;20118;-63
2022/05/09 04:56:20;;;;;;;2.15;0.65;;;;;;;;;;5027170;28;20633;-61
2022/05/09 04:58:47;;;;;;;2.15;0.80;;;;;;;;;;5026452;28;20045;-61
2022/05/09 05:01:14;;;;;;;2.90;0.98;;;;;;;;;;5027609;28;20116;-61
2022/05/09 05:03:41;;;;;;;1.73;0.63;;;;;;;;;;5027949;28;20040;-63
2022/05/09 05:06:07;;;;;;;2.60;0.95;;;;;;;;;;5004910;28;20500;-61
2022/05/09 05:08:35;;;;;;;2.70;0.88;;;;;;;;;;5025833;28;20060;-63
2022/05/09 05:11:02;;;;;;;3.00;1.15;;;;;;;;;;5008626;28;20385;-62
2022/05/09 05:13:29;;;;;;;2.70;1.15;;;;;;;;;;5009858;28;20099;-62
2022/05/09 05:15:57;;;;;;;2.40;1.00;;;;;;;;;;5027280;28;20132;-62
2022/05/09 05:18:26;;;;;;;3.42;1.33;;;;;;;;;;5026776;28;20036;-63
2022/05/09 05:20:53;;;;;;;2.67;1.17;;;;;;;;;;5026112;28;20041;-63
2022/05/09 05:23:20;;;;;;;2.97;1.10;;;;;;;;;;5008275;28;20068;-63
2022/05/09 05:25:47;;;;;;;3.08;1.42;;;;;;;;;;5026040;28;20046;-63
2022/05/09 05:28:17;;;;;;;3.47;0.98;;;;;;;;;;5027456;28;20041;-63
2022/05/09 05:30:44;;;;;;;3.00;1.23;;;;;;;;;;5024714;28;20591;-61
2022/05/09 05:33:11;;;;;;;1.73;0.80;;;;;;;;;;5020333;28;20065;-62
2022/05/09 05:35:37;;;;;;;2.53;1.08;;;;;;;;;;5028170;28;20048;-62
2022/05/09 05:38:04;;;;;;;1.90;0.95;;;;;;;;;;5027917;28;20037;-63
2022/05/09 05:40:31;;;;;;;3.78;1.88;;;;;;;;;;5026977;28;20209;-65
2022/05/09 05:42:58;;;;;;;3.72;1.80;;;;;;;;;;5026563;28;20116;-63
2022/05/09 05:45:24;;;;;;;2.63;1.40;;;;;;;;;;5027023;28;20033;-63
2022/05/09 05:47:52;;;;;;;2.85;1.13;;;;;;;;;;5028493;28;20041;-64
2022/05/09 05:50:20;;;;;;;3.13;1.45;;;;;;;;;;5027563;28;20113;-64
2022/05/09 05:52:46;;;;;;;2.70;1.10;;;;;;;;;;5027257;28;20064;-62
2022/05/09 05:55:13;;;;;;;2.70;1.00;;;;;;;;;;5027613;28;20119;-65
2022/05/09 05:57:41;;;;;;;1.33;0.68;;;;;;;;;;5026920;28;20041;-64
2022/05/09 06:00:12;;;;;;;3.03;1.10;;;;;;;;;;5026182;28;20037;-64
2022/05/09 06:02:39;;;;;;;2.65;1.23;;;;;;;;;;5026353;28;20049;-64
2022/05/09 06:05:07;;;;;;;2.15;1.13;;;;;;;;;;5032384;28;20056;-63
2022/05/09 06:07:34;;;;;;;3.40;1.55;;;;;;;;;;5027117;28;20052;-64
2022/05/09 06:10:01;;;;;;;1.73;0.82;;;;;;;;;;5030654;28;20587;-64
2022/05/09 06:12:28;;;;;;;2.80;1.15;;;;;;;;;;5024626;28;21062;-64
2022/05/09 06:17:40;;;;;;;3.03;1.35;;;;;;;;;;5028514;28;20063;-64
2022/05/09 06:20:08;;;;;;;2.20;0.85;;;;;;;;;;5030088;28;20489;-64
2022/05/09 06:22:37;;;;;;;3.17;1.63;;;;;;;;;;5028735;28;20053;-64
2022/05/09 06:25:05;;;;;;;3.28;1.60;;;;;;;;;;5032053;28;20164;-64
2022/05/09 06:27:32;;;;;;;3.00;1.45;;;;;;;;;;5029732;28;20037;-64
2022/05/09 06:30:02;;;;;;;3.10;1.80;;;;;;;;;;5029460;28;20120;-64
2022/05/09 06:32:28;;;;;;;2.72;0.93;;;;;;;;;;5011217;28;20148;-64
2022/05/09 06:34:55;;;;;;;1.73;0.73;;;;;;;;;;5029860;28;20046;-64
2022/05/09 06:37:22;;;;;;;2.95;1.33;;;;;;;;;;5027722;28;20037;-64
2022/05/09 06:39:49;;;;;;;3.85;2.20;;;;;;;;;;5029799;28;20041;-62
2022/05/09 06:42:15;;;;;;;3.00;1.55;;;;;;;;;;5027804;28;20501;-64
2022/05/09 06:44:42;;;;;;;3.05;1.15;;;;;;;;;;5031104;28;20389;-63
2022/05/09 06:47:11;;;;;;;2.85;1.40;;;;;;;;;;5028773;28;20057;-63
2022/05/09 06:49:38;;;;;;;3.85;2.10;;;;;;;;;;5029723;28;20067;-63
2022/05/09 06:52:05;;;;;;;3.90;1.90;;;;;;;;;;5029945;28;20053;-62
2022/05/09 06:54:32;;;;;;;3.75;1.70;;;;;;;;;;5028091;28;20053;-62
2022/05/09 06:56:58;;;;;;;4.13;2.22;;;;;;;;;;5028545;28;20036;-62
2022/05/09 06:59:25;;;;;;;3.25;1.70;;;;;;;;;;5027460;28;20069;-62
2022/05/09 07:01:52;;;;;;;5.40;3.10;;;;;;;;;;5027808;28;20511;-63
2022/05/09 07:04:19;;;;;;;4.18;2.45;;;;;;;;;;5028430;28;20115;-63
2022/05/09 07:06:45;;;;;;;5.82;3.95;;;;;;;;;;5030400;28;20737;-63
2022/05/09 07:09:15;;;;;;;6.10;3.75;;;;;;;;;;5027914;28;20050;-63
2022/05/09 07:11:41;;;;;;;5.82;3.60;;;;;;;;;;5028067;28;20138;-63
2022/05/09 07:14:08;;;;;;;5.80;3.70;;;;;;;;;;5027706;28;20064;-64
2022/05/09 07:16:36;;;;;;;6.22;3.53;;;;;;;;;;5028566;28;20041;-63
2022/05/09 07:19:07;;;;;;;6.93;3.80;;;;;;;;;;5005275;28;20205;-64
2022/05/09 07:21:34;;;;;;;8.45;4.40;;;;;;;;;;5025575;28;20048;-64
2022/05/09 07:24:01;;;;;;;6.05;3.92;;;;;;;;;;5027873;28;20033;-65
2022/05/09 07:26:27;;;;;;;5.95;4.13;;;;;;;;;;5027978;28;20155;-65
2022/05/09 07:28:54;;;;;;;7.65;3.45;;;;;;;;;;5027594;28;20033;-65
2022/05/09 07:31:21;;;;;;;6.07;4.32;;;;;;;;;;5027336;28;20045;-65
2022/05/09 07:33:47;;;;;;;6.40;3.58;;;;;;;;;;5028183;28;20051;-65
2022/05/09 07:36:14;;;;;;;7.40;4.43;;;;;;;;;;5027778;28;20053;-65
2022/05/09 07:38:42;;;;;;;6.18;3.90;;;;;;;;;;5025767;28;20747;-64
2022/05/09 07:41:08;;;;;;;6.90;4.25;;;;;;;;;;5028788;28;20529;-65
2022/05/09 07:43:35;;;;;;;6.55;4.03;;;;;;;;;;5027983;28;20099;-65
2022/05/09 07:46:02;;;;;;;6.20;4.13;;;;;;;;;;5028507;28;20767;-64
2022/05/09 07:48:29;;;;;;;6.88;4.57;;;;;;;;;;5027362;28;20423;-64
2022/05/09 07:50:57;;;;;;;7.32;4.00;;;;;;;;;;5029796;28;20088;-65
2022/05/09 07:53:31;;;;;;;8.10;4.28;;;;;;;;;;5027653;28;20059;-65
2022/05/09 07:55:57;;;;;;;5.95;4.28;;;;;;;;;;5029630;28;20064;-65
2022/05/09 07:58:24;;;;;;;6.30;4.18;;;;;;;;;;5029335;28;20037;-65
2022/05/09 08:00:51;;;;;;;7.72;4.68;;;;;;;;;;5029991;28;20094;-65
2022/05/09 08:03:19;;;;;;;6.07;4.32;;;;;;;;;;5028485;28;20045;-65
2022/05/09 08:05:46;;;;;;;7.00;4.28;;;;;;;;;;5027548;28;20041;-65
2022/05/09 08:08:13;;;;;;;5.60;3.75;;;;;;;;;;5028009;28;20132;-64
2022/05/09 08:10:40;;;;;;;6.72;4.25;;;;;;;;;;5027876;28;20039;-64
2022/05/09 08:13:08;;;;;;;6.72;4.30;;;;;;;;;;5028915;28;20430;-65
2022/05/09 08:15:35;;;;;;;6.82;4.80;;;;;;;;;;5028428;28;20093;-65
2022/05/09 08:18:02;;;;;;;6.45;3.90;;;;;;;;;;5028542;28;20036;-65
2022/05/09 08:20:30;;;;;;;6.40;4.05;;;;;;;;;;5027730;28;20044;-65
2022/05/09 08:23:06;;;;;;;7.13;4.53;;;;;;;;;;5027922;28;20062;-65
2022/05/09 08:25:34;;;;;;;9.85;4.53;;;;;;;;;;5027115;28;20063;-65
2022/05/09 08:28:02;;;;;;;6.75;4.43;;;;;;;;;;5029273;28;20714;-65
2022/05/09 08:30:35;;;;;;;2.55;1.20;;;;;;;;;;5028467;28;20132;-65
2022/05/09 08:33:03;;;;;;;6.18;3.88;;;;;;;;;;5028498;28;20040;-65
2022/05/09 08:35:29;;;;;;;6.53;4.35;;;;;;;;;;5027401;28;20354;-65
2022/05/09 08:37:56;;;;;;;7.38;4.07;;;;;;;;;;5027634;28;20044;-64
2022/05/09 08:40:27;;;;;;;6.43;4.07;;;;;;;;;;5026331;28;20675;-66
2022/05/09 08:43:01;;;;;;;8.23;4.47;;;;;;;;;;5027127;28;20037;-65
2022/05/09 08:45:39;;;;;;;8.48;4.97;;;;;;;;;;5026887;28;20524;-65
2022/05/09 08:48:22;;;;;;;5.15;3.17;;;;;;;;;;5024907;28;20056;-65
2022/05/09 08:50:58;;;;;;;6.32;4.05;;;;;;;;;;5026489;28;20090;-66
2022/05/09 08:53:26;;;;;;;5.72;3.75;;;;;;;;;;5026032;28;20107;-65
2022/05/09 08:55:54;;;;;;;6.28;4.30;;;;;;;;;;5025920;28;20116;-66
2022/05/09 08:58:42;;;;;;;4.53;2.65;;;;;;;;;;5024311;28;20048;-65
2022/05/09 09:01:35;;;;;;;4.93;2.63;;;;;;;;;;5026160;28;20133;-66
2022/05/09 09:04:03;;;;;;;6.72;3.97;;;;;;;;;;4997979;28;20037;-65
2022/05/09 09:06:49;;;;;;;6.53;4.05;;;;;;;;;;5026312;28;20040;-65
2022/05/09 09:09:22;;;;;;;4.57;3.03;;;;;;;;;;5027063;28;20052;-65
2022/05/09 09:11:52;;;;;;;7.45;4.53;;;;;;;;;;5026823;28;20073;-65
2022/05/09 09:14:39;;;;;;;6.85;4.60;;;;;;;;;;5029148;28;20116;-65
2022/05/09 09:17:05;;;;;;;5.63;3.80;;;;;;;;;;4995396;28;20044;-64
2022/05/09 09:19:47;;;;;;;6.22;3.78;;;;;;;;;;5025601;28;20041;-64
2022/05/09 09:22:26;;;;;;;5.78;3.58;;;;;;;;;;5028095;28;20059;-64
2022/05/09 09:25:00;;;;;;;5.53;3.30;;;;;;;;;;5027336;28;20045;-64
2022/05/09 09:27:27;;;;;;;5.95;3.97;;;;;;;;;;5027146;28;20695;-64
2022/05/09 09:29:59;;;;;;;5.95;4.05;;;;;;;;;;5026822;28;20053;-64
2022/05/09 09:32:26;;;;;;;5.28;3.35;;;;;;;;;;5026140;28;20034;-64
2022/05/09 09:35:03;;;;;;;6.95;4.25;;;;;;;;;;5027720;28;20762;-64
2022/05/09 09:37:35;;;;;;;6.18;4.00;;;;;;;;;;5027506;28;20052;-64
2022/05/09 09:40:04;;;;;;;5.97;3.97;;;;;;;;;;5032197;28;20056;-64
2022/05/09 09:42:30;;;;;;;6.53;4.40;;;;;;;;;;5031006;28;20046;-65
2022/05/09 09:45:00;;;;;;;6.47;4.28;;;;;;;;;;5031972;28;20556;-64
2022/05/09 09:47:28;;;;;;;9.27;3.63;;;;;;;;;;5031823;28;20492;-64
2022/05/09 09:50:21;;;;;;;6.18;4.05;;;;;;;;;;5032395;28;20037;-64
2022/05/09 09:52:52;;;;;;;6.10;4.22;;;;;;;;;;5027456;28;20041;-64
2022/05/09 09:55:33;;;;;;;6.00;3.70;;;;;;;;;;5031117;28;20045;-65
2022/05/09 09:58:18;;;;;;;5.80;3.35;;;;;;;;;;5033932;28;20071;-65
2022/05/09 10:00:45;;;;;;;5.95;3.58;;;;;;;;;;5033274;28;20091;-65
2022/05/09 10:03:19;;;;;;;7.07;3.97;;;;;;;;;;5031370;28;20082;-65
2022/05/09 10:05:46;;;;;;;5.43;3.47;;;;;;;;;;5032780;28;20033;-65
2022/05/09 10:08:34;;;;;;;6.55;3.90;;;;;;;;;;5031628;28;20143;-65
2022/05/09 10:11:04;;;;;;;6.63;3.95;;;;;;;;;;5030395;28;20049;-65
2022/05/09 10:13:35;;;;;;;7.68;3.95;;;;;;;;;;5032207;28;20106;-65
2022/05/09 10:16:04;;;;;;;6.03;3.35;;;;;;;;;;5026062;28;20595;-64
2022/05/09 10:18:34;;;;;;;6.10;3.75;;;;;;;;;;5031566;28;20080;-65
2022/05/09 10:21:11;;;;;;;5.97;3.65;;;;;;;;;;5031400;28;20132;-64
2022/05/09 10:26:32;;;;;;;5.88;3.55;;;;;;;;;;5029114;28;20059;-65
2022/05/09 10:29:00;;;;;;;6.50;3.65;;;;;;;;;;5030177;28;20094;-64
2022/05/09 10:31:34;;;;;;;6.18;3.30;;;;;;;;;;5028787;28;20041;-65
2022/05/09 10:34:03;;;;;;;6.57;3.47;;;;;;;;;;5030808;28;20049;-64
2022/05/09 10:36:38;;;;;;;7.57;3.60;;;;;;;;;;5028126;28;20063;-65
2022/05/09 10:39:08;;;;;;;6.30;2.90;;;;;;;;;;5029428;28;20150;-64
2022/05/09 10:41:41;;;;;;;5.43;2.80;;;;;;;;;;5005630;28;20309;-65
2022/05/09 10:44:20;;;;;;;5.22;2.65;;;;;;;;;;5029916;28;20131;-65
2022/05/09 10:46:49;;;;;;;5.00;2.80;;;;;;;;;;5028533;28;20115;-65
2022/05/09 10:49:43;;;;;;;4.88;2.55;;;;;;;;;;5028382;28;20041;-65
2022/05/09 10:52:28;;;;;;;7.43;2.92;;;;;;;;;;5025819;28;20400;-65
2022/05/09 10:54:57;;;;;;;4.18;2.55;;;;;;;;;;5028433;28;20537;-65
2022/05/09 10:57:28;;;;;;;4.72;2.65;;;;;;;;;;5027714;28;20099;-64
2022/05/09 11:00:00;;;;;;;4.85;2.70;;;;;;;;;;5030097;28;20045;-64
2022/05/09 11:02:32;;;;;;;5.10;2.63;;;;;;;;;;5029862;28;20398;-64
2022/05/09 11:04:59;;;;;;;4.88;2.50;;;;;;;;;;5030664;28;20045;-66
2022/05/09 11:07:25;;;;;;;4.43;2.55;;;;;;;;;;5008083;28;20037;-63
2022/05/09 11:10:15;;;;;;;6.13;2.45;;;;;;;;;;5029500;28;20037;-63
2022/05/09 11:12:48;;;;;;;6.15;2.13;;;;;;;;;;5021232;28;20041;-64
2022/05/09 11:15:15;;;;;;;4.90;2.35;;;;;;;;;;5029882;28;20136;-63
2022/05/09 11:17:48;;;;;;;6.95;2.38;;;;;;;;;;5028902;28;20072;-64
2022/05/09 11:20:35;;;;;;;4.45;2.30;;;;;;;;;;5030616;28;20041;-63
2022/05/09 11:23:17;;;;;;;4.47;2.25;;;;;;;;;;5029642;28;20041;-63
2022/05/09 11:25:46;;;;;;;4.65;2.33;;;;;;;;;;5028976;28;20090;-64
2022/05/09 11:28:25;;;;;;;4.65;2.35;;;;;;;;;;5028557;28;20095;-64
2022/05/09 11:31:02;;;;;;;4.72;2.22;;;;;;;;;;5028384;28;20492;-64
2022/05/09 11:33:30;;;;;;;4.55;2.17;;;;;;;;;;5019844;28;20884;-64
2022/05/09 11:36:03;;;;;;;4.55;2.55;;;;;;;;;;5026304;28;20075;-64
2022/05/09 11:38:30;;;;;;;5.28;2.42;;;;;;;;;;5026775;28;20037;-64
2022/05/09 11:40:56;;;;;;;5.13;2.30;;;;;;;;;;5027724;28;20155;-64
2022/05/09 11:43:41;;;;;;;5.00;2.80;;;;;;;;;;5028465;28;20072;-65
2022/05/09 11:46:17;;;;;;;8.48;3.00;;;;;;;;;;5026326;28;20072;-65
2022/05/09 11:48:53;;;;;;;6.32;2.85;;;;;;;;;;5029746;28;20037;-64
2022/05/09 11:51:32;;;;;;;5.38;3.10;;;;;;;;;;5025977;28;20045;-64
2022/05/09 11:54:01;;;;;;;5.65;3.35;;;;;;;;;;5029185;28;20519;-65
2022/05/09 11:56:32;;;;;;;6.57;3.80;;;;;;;;;;5028570;28;20029;-64
2022/05/09 11:58:59;;;;;;;5.93;3.90;;;;;;;;;;5029102;28;20849;-65
2022/05/09 12:01:44;;;;;;;8.48;4.13;;;;;;;;;;5026559;28;20051;-65
2022/05/09 12:04:28;;;;;;;7.68;4.18;;;;;;;;;;5027960;28;20113;-64
2022/05/09 12:06:54;;;;;;;9.23;4.82;;;;;;;;;;5026359;28;20048;-64
2022/05/09 12:09:39;;;;;;;7.45;4.65;;;;;;;;;;5026441;28;20048;-64
2022/05/09 12:12:06;;;;;;;9.63;4.85;;;;;;;;;;5026606;28;20044;-62
2022/05/09 12:14:41;;;;;;;10.23;5.07;;;;;;;;;;5028135;28;20060;-64
2022/05/09 12:17:19;;;;;;;7.88;4.93;;;;;;;;;;5026568;28;20064;-64
2022/05/09 12:19:46;;;;;;;10.27;5.45;;;;;;;;;;5026749;28;20037;-63
2022/05/09 12:22:34;;;;;;;7.35;4.53;;;;;;;;;;5025883;28;20041;-63
2022/05/09 12:25:02;;;;;;;8.00;5.13;;;;;;;;;;5026047;28;20409;-65
2022/05/09 12:28:03;;;;;;;9.38;5.22;;;;;;;;;;5025981;28;20041;-63
2022/05/09 12:30:36;;;;;;;9.25;5.25;;;;;;;;;;5025892;28;20041;-62
2022/05/09 12:33:22;;;;;;;6.93;4.50;;;;;;;;;;5026677;28;20505;-63
2022/05/09 12:35:52;;;;;;;7.03;4.32;;;;;;;;;;4980620;28;20054;-62
2022/05/09 12:38:24;;;;;;;6.75;4.53;;;;;;;;;;4981691;28;20046;-62
2022/05/09 12:41:01;;;;;;;7.75;4.72;;;;;;;;;;4979561;28;20121;-66
2022/05/09 12:43:29;;;;;;;6.78;4.20;;;;;;;;;;4979784;28;20038;-64
2022/05/09 12:45:56;;;;;;;8.25;4.45;;;;;;;;;;4981423;28;20149;-61
2022/05/09 12:48:23;;;;;;;6.70;4.35;;;;;;;;;;4981395;28;20056;-63
2022/05/09 12:50:50;;;;;;;7.93;4.57;;;;;;;;;;4980355;28;20053;-63
2022/05/09 12:53:18;;;;;;;12.75;4.20;;;;;;;;;;4982362;28;20128;-64
2022/05/09 12:55:52;;;;;;;7.45;4.50;;;;;;;;;;4982227;28;20042;-63
2022/05/09 12:58:22;;;;;;;7.18;4.45;;;;;;;;;;4981008;28;20038;-63
2022/05/09 13:00:49;;;;;;;10.30;4.78;;;;;;;;;;4982788;28;20038;-64
2022/05/09 13:03:16;;;;;;;7.22;4.40;;;;;;;;;;4982779;28;20064;-65
2022/05/09 13:05:45;;;;;;;6.93;4.32;;;;;;;;;;4981687;28;20066;-63
2022/05/09 13:08:15;;;;;;;8.93;4.22;;;;;;;;;;5024009;28;20864;-63
2022/05/09 13:10:50;;;;;;;7.45;4.35;;;;;;;;;;5023562;28;20049;-63
2022/05/09 13:13:27;;;;;;;8.07;4.90;;;;;;;;;;5026668;28;20486;-63
2022/05/09 13:15:54;;;;;;;7.38;4.40;;;;;;;;;;4985033;28;20042;-64
2022/05/09 13:18:23;;;;;;;6.55;4.10;;;;;;;;;;5006116;28;20037;-64
2022/05/09 13:20:54;;;;;;;9.10;4.30;;;;;;;;;;5007879;28;20061;-63
2022/05/09 13:23:33;;;;;;;9.90;3.63;;;;;;;;;;5008370;28;20033;-63
2022/05/09 13:26:01;;;;;;;5.75;3.33;;;;;;;;;;5008014;28;20076;-63
2022/05/09 13:28:30;;;;;;;5.15;2.67;;;;;;;;;;5008033;28;20406;-63
2022/05/09 13:30:57;;;;;;;4.75;2.10;;;;;;;;;;5007336;28;20577;-63
2022/05/09 13:33:31;;;;;;;6.00;2.20;;;;;;;;;;5007867;28;20045;-63
2022/05/09 13:35:59;;;;;;;;;;;;;;;;;;5032298;28;20167;-63
2022/05/09 13:38:34;;;;;;;4.30;2.03;;;;;;;;;;5011563;28;21026;-63
2022/05/09 13:41:24;;;;;;;6.03;1.70;;;;;;;;;;5029748;28;20486;-64
2022/05/09 13:43:52;;;;;;;5.10;2.08;;;;;;;;;;5022391;28;20048;-63
2022/05/09 13:46:20;;;;;;;5.07;2.63;;;;;;;;;;5030700;28;20576;-63
2022/05/09 13:48:53;;;;;;;4.35;2.30;;;;;;;;;;5031377;28;20037;-62
2022/05/09 13:51:27;;;;;;;6.70;2.33;;;;;;;;;;5029160;28;20736;-63
2022/05/09 13:53:56;;;;;;;6.93;2.65;;;;;;;;;;5014753;28;20056;-62
2022/05/09 13:56:27;;;;;;;4.68;2.50;;;;;;;;;;5009253;28;20130;-63
2022/05/09 13:59:02;;;;;;;4.60;2.58;;;;;;;;;;5006845;28;20506;-62
2022/05/09 14:01:38;;;;;;;5.15;2.75;;;;;;;;;;5008022;28;20095;-62
2022/05/09 14:04:05;;;;;;;4.18;2.20;;;;;;;;;;5032134;28;20029;-62
2022/05/09 14:06:32;;;;;;;4.45;2.35;;;;;;;;;;5029107;28;20037;-62
2022/05/09 14:09:02;;;;;;;3.53;1.77;;;;;;;;;;5031357;28;20037;-64
2022/05/09 14:11:31;;;;;;;3.53;1.50;;;;;;;;;;5029650;28;20056;-61
2022/05/09 14:13:58;;;;;;;3.50;1.30;;;;;;;;;;5029524;28;20074;-62
2022/05/09 14:16:28;;;;;;;2.72;1.15;;;;;;;;;;5023500;28;20037;-62
2022/05/09 14:19:09;;;;;;;2.88;1.10;;;;;;;;;;5030445;28;20067;-63
2022/05/09 14:21:41;;;;;;;2.90;0.98;;;;;;;;;;5029515;28;21442;-63
2022/05/09 14:24:09;;;;;;;2.65;1.02;;;;;;;;;;5032438;28;20416;-63
2022/05/09 14:29:36;;;;;;;3.38;1.55;;;;;;;;;;5005696;28;20123;-63
2022/05/09 14:32:11;;;;;;;3.92;1.77;;;;;;;;;;5007304;28;20065;-63
2022/05/09 14:34:50;;;;;;;9.93;2.08;;;;;;;;;;5006315;28;20421;-63
2022/05/09 14:37:26;;;;;;;3.00;1.30;;;;;;;;;;4990578;28;20052;-63
2022/05/09 14:39:58;;;;;;;9.38;1.77;;;;;;;;;;5005267;28;20155;-62
2022/05/09 14:42:25;;;;;;;3.10;1.30;;;;;;;;;;5006328;28;20450;-62
2022/05/09 14:45:09;;;;;;;3.38;1.50;;;;;;;;;;5007389;28;20042;-61
2022/05/09 14:47:44;;;;;;;3.72;1.75;;;;;;;;;;5004621;28;20077;-61
2022/05/09 14:50:11;;;;;;;2.92;1.40;;;;;;;;;;5005210;28;20798;-63
2022/05/09 14:52:44;;;;;;;3.10;1.45;;;;;;;;;;5005322;28;20125;-62
2022/05/09 14:58:06;;;;;;;4.57;1.50;;;;;;;;;;4998465;28;20429;-63
2022/05/09 15:00:36;;;;;;;3.97;1.80;;;;;;;;;;5004974;28;20045;-62
2022/05/09 15:03:04;;;;;;;6.43;1.80;;;;;;;;;;5006641;28;20463;-61
2022/05/09 15:05:31;;;;;;;4.43;1.77;;;;;;;;;;5005829;28;20104;-62
2022/05/09 15:07:58;;;;;;;3.30;1.42;;;;;;;;;;5006611;28;20057;-62
2022/05/09 15:10:26;;;;;;;4.03;1.73;;;;;;;;;;5004273;28;20038;-63
2022/05/09 15:12:53;;;;;;;3.22;1.50;;;;;;;;;;5006483;28;20088;-63
2022/05/09 15:15:19;;;;;;;4.03;1.95;;;;;;;;;;5005877;28;20053;-63
2022/05/09 15:17:46;;;;;;;5.10;1.90;;;;;;;;;;5006085;28;20108;-62
2022/05/09 15:20:13;;;;;;;4.53;1.90;;;;;;;;;;5000053;28;20041;-63
2022/05/09 15:22:40;;;;;;;3.88;1.70;;;;;;;;;;4998848;28;20069;-63
2022/05/09 15:25:08;;;;;;;3.97;1.90;;;;;;;;;;5006724;28;20173;-62
2022/05/09 15:27:36;;;;;;;3.28;1.40;;;;;;;;;;5004310;28;20030;-63
2022/05/09 15:30:02;;;;;;;3.95;1.75;;;;;;;;;;5003009;28;20034;-63
2022/05/09 15:32:29;;;;;;;3.65;1.52;;;;;;;;;;5003973;28;20128;-63